Latest Weather Observations for Jacup

IDW60801

Issued at 8:35 am WST Tuesday 29 July 2014 (issued every 30 minutes, with the page automatically refreshed every 10 minutes)

About weather observations | Map of weather stations | Latest weather observations for WA | Other Formats
Station Details ID: 010905 Name: JACUP Lat: -33.89 Lon: 119.11 Height: 305.0 m
Data from the previous 72 hours. | See also: Recent months at Jacup
Date/Time
WST
Temp
°C
App
Temp
°C
Dew
Point
Rel
Hum
%
Delta-T
°C
Wind Press
QNH
hPa
Press
MSL
hPa
Rain
since 9 am
mm
Dir
 
Spd
km/h
Gust
km/h
Spd
kts
Gust
kts
29/08:30am 12.3 8.7 10.4 88 1.0 WNW 20 33 11 18 1021.2 - 0.4
29/08:00am 11.1 7.9 9.9 92 0.6 WNW 17 24 9 13 1020.9 1021.0 0.4
29/07:30am 10.2 6.9 9.6 96 0.3 WNW 17 24 9 13 1020.6 - 0.4
29/07:00am 9.6 6.5 9.0 96 0.3 NW 15 20 8 11 1020.6 1020.8 0.4
29/06:30am 9.8 7.1 9.0 95 0.4 WNW 13 19 7 10 1020.6 - 0.2
29/06:00am 10.1 8.2 9.0 93 0.6 W 9 15 5 8 1020.5 1020.7 0.2
29/05:30am 10.6 6.7 9.4 92 0.6 WNW 20 28 11 15 1019.7 - 0.2
29/05:00am 10.8 6.6 9.6 92 0.6 WNW 22 35 12 19 1019.5 1019.7 0.2
29/04:30am 10.7 7.1 9.8 94 0.5 W 19 28 10 15 1019.8 - 0.2
29/04:00am 10.7 6.9 9.8 94 0.5 W 20 32 11 17 1019.9 1020.1 0.2
29/03:30am 10.6 6.4 9.8 95 0.4 W 22 35 12 19 1019.9 - 0.2
29/03:00am 10.2 6.3 9.6 96 0.3 WNW 20 33 11 18 1019.6 1019.8 0.2
29/02:30am 9.8 6.0 9.2 96 0.3 WNW 19 32 10 17 1019.4 - 0.2
29/02:00am 9.8 6.0 9.2 96 0.3 WNW 19 28 10 15 1019.1 1019.3 0.2
29/01:30am 10.1 5.5 9.5 96 0.3 WNW 24 37 13 20 1019.2 - 0.2
29/01:00am 9.9 6.1 9.1 95 0.4 NW 19 30 10 16 1019.2 1019.4 0.2
29/12:30am 10.2 5.9 9.4 95 0.4 WNW 22 32 12 17 1019.5 - 0.2
29/12:00am 10.2 5.9 9.4 95 0.4 WNW 22 32 12 17 1019.4 1019.6 0.2
 
Date/Time
WST
Temp
°C
App
Temp
°C
Dew
Point
Rel
Hum
%
Delta-T
°C
Wind Press
QNH
hPa
Press
MSL
hPa
Rain
since 9 am
mm
Dir
 
Spd
km/h
Gust
km/h
Spd
kts
Gust
kts
28/11:30pm 10.2 6.5 9.4 95 0.4 WNW 19 28 10 15 1019.5 - 0.2
28/11:00pm 10.1 6.1 9.2 94 0.5 WNW 20 28 11 15 1019.8 1020.0 0.2
28/10:30pm 10.1 6.3 9.2 94 0.5 WNW 19 26 10 14 1019.9 - 0.2
28/10:00pm 10.4 6.7 9.3 93 0.6 WNW 19 28 10 15 1020.1 1020.3 0.0
28/09:30pm 10.5 7.2 9.4 93 0.6 WNW 17 20 9 11 1020.3 - 0.0
28/09:00pm 10.5 7.5 9.1 91 0.7 WNW 15 20 8 11 1020.3 1020.5 0.0
28/08:30pm 11.0 7.7 9.4 90 0.8 WNW 17 22 9 12 1020.2 - 0.0
28/08:00pm 11.3 8.0 9.7 90 0.8 WNW 17 26 9 14 1020.0 1020.2 0.0
28/07:30pm 11.7 9.3 9.9 89 0.9 WNW 13 20 7 11 1019.9 - 0.0
28/07:00pm 12.3 9.2 10.2 87 1.1 WNW 17 26 9 14 1019.7 1019.9 0.0
28/06:30pm 12.0 10.2 9.6 85 1.2 WNW 9 13 5 7 1019.7 - 0.0
28/06:00pm 13.4 10.2 10.0 80 1.8 W 17 26 9 14 1019.2 1019.4 0.0
28/05:30pm 12.7 10.2 9.7 82 1.6 WNW 13 20 7 11 1019.1 - 0.0
28/05:00pm 13.8 10.7 10.4 80 1.8 W 17 30 9 16 1019.0 1019.2 0.0
28/04:30pm 15.3 11.5 9.9 70 2.9 W 20 35 11 19 1018.5 - 0.0
28/04:00pm 15.4 11.7 10.0 70 2.9 WNW 20 30 11 16 1018.6 1018.8 0.0
28/03:30pm 16.4 11.6 10.3 67 3.3 W 26 39 14 21 1018.3 - 0.0
28/03:00pm 15.2 10.2 9.6 69 2.9 W 26 44 14 24 1018.1 1018.2 0.0
28/02:30pm 15.7 9.9 9.4 66 3.3 W 30 50 16 27 1018.1 - 0.0
28/02:22pm 15.8 10.0 9.5 66 3.3 W 30 50 16 27 1018.0 - 0.0
28/02:00pm 15.7 9.5 9.4 66 3.3 WNW 32 48 17 26 1017.7 1017.8 0.0
28/01:30pm 15.7 9.9 9.4 66 3.3 W 30 43 16 23 1017.8 - 0.0
28/01:15pm 16.1 10.7 9.5 65 3.5 W 28 46 15 25 1017.9 - 0.0
28/01:00pm 16.9 10.7 9.3 61 4.0 W 32 48 17 26 1017.9 1018.0 0.0
28/12:30pm 16.7 10.6 9.6 63 3.8 WNW 32 54 17 29 1018.3 - 0.0
28/12:00pm 16.5 9.7 9.4 63 3.7 W 35 56 19 30 1018.5 1018.7 0.0
28/11:30am 16.1 9.9 9.5 65 3.5 W 32 54 17 29 1019.2 - 0.0
28/11:00am 15.6 8.9 9.7 68 3.1 W 35 54 19 29 1019.5 1019.7 0.0
28/10:30am 15.0 9.6 9.4 69 2.9 WNW 28 46 15 25 1019.7 - 0.0
28/10:00am 14.1 9.1 9.7 75 2.3 WNW 26 44 14 24 1019.4 1019.6 0.0
28/09:47am 13.5 8.2 9.7 78 2.0 WNW 28 50 15 27 1019.5 - 0.0
28/09:30am 13.1 8.9 9.9 81 1.7 WNW 22 32 12 17 1019.5 - 0.0
28/09:00am 12.2 8.4 9.8 85 1.2 WNW 20 33 11 18 1019.5 1019.7 0.0
28/08:30am 11.2 7.3 9.5 89 0.9 WNW 20 30 11 16 1019.3 - 0.0
28/08:00am 10.0 6.2 8.9 93 0.5 WNW 19 32 10 17 1018.9 1019.1 0.0
28/07:30am 9.3 5.2 8.5 95 0.4 WNW 20 32 11 17 1018.2 - 0.0
28/07:00am 8.9 4.9 8.1 95 0.4 WNW 19 32 10 17 1018.0 1018.1 0.0
28/06:30am 9.0 5.4 8.2 95 0.4 WNW 17 28 9 15 1018.0 - 0.0
28/06:00am 9.2 6.0 8.4 95 0.4 WNW 15 26 8 14 1018.2 1018.3 0.0
28/05:30am 9.1 5.9 8.5 96 0.3 WNW 15 22 8 12 1018.1 - 0.0
28/05:00am 8.8 5.5 8.2 96 0.3 WNW 15 22 8 12 1017.9 1018.0 0.0
28/04:30am 8.9 5.2 8.1 95 0.4 WNW 17 30 9 16 1017.6 - 0.0
28/04:00am 9.0 5.0 8.2 95 0.4 WNW 19 30 10 16 1017.8 1017.9 0.0
28/03:30am 9.1 4.2 8.3 95 0.4 WNW 24 37 13 20 1017.8 - 0.0
28/03:00am 9.1 4.9 8.2 94 0.4 WNW 20 33 11 18 1018.1 1018.2 0.0
28/02:30am 9.2 4.6 8.3 94 0.4 WNW 22 32 12 17 1018.2 - 0.0
28/02:00am 9.1 4.9 8.2 94 0.4 WNW 20 32 11 17 1018.2 1018.3 0.0
28/01:30am 9.1 4.9 8.2 94 0.4 WNW 20 33 11 18 1018.3 - 0.0
28/01:00am 9.1 5.4 7.9 92 0.6 WNW 17 32 9 17 1018.7 1018.9 0.0
28/12:30am 9.3 5.6 7.9 91 0.7 WNW 17 26 9 14 1018.7 - 0.0
28/12:00am 9.4 5.3 7.8 90 0.8 WNW 19 32 10 17 1019.0 1019.2 0.0
 
Date/Time
WST
Temp
°C
App
Temp
°C
Dew
Point
Rel
Hum
%
Delta-T
°C
Wind Press
QNH
hPa
Press
MSL
hPa
Rain
since 9 am
mm
Dir
 
Spd
km/h
Gust
km/h
Spd
kts
Gust
kts
27/11:30pm 9.6 5.3 8.0 90 0.8 WNW 20 30 11 16 1019.0 - 0.0
27/11:00pm 9.6 5.3 7.9 89 0.8 WNW 20 30 11 16 1019.0 1019.2 0.0
27/10:30pm 9.9 5.8 7.8 87 1.0 WNW 19 32 10 17 1019.1 - 0.0
27/10:00pm 10.3 5.3 7.9 85 1.2 WNW 24 33 13 18 1019.1 1019.3 0.0
27/09:30pm 10.4 5.8 8.0 85 1.2 WNW 22 33 12 18 1019.1 - 0.0
27/09:00pm 10.7 6.4 7.9 83 1.4 WNW 20 30 11 16 1019.1 1019.3 0.0
27/08:30pm 11.0 6.7 7.9 81 1.5 WNW 20 30 11 16 1018.9 - 0.0
27/08:00pm 11.4 7.4 8.3 81 1.5 WNW 19 28 10 15 1018.8 1019.0 0.0
27/07:30pm 11.1 7.4 8.1 82 1.5 WNW 17 24 9 13 1018.9 - 0.0
27/07:00pm 11.1 8.2 8.3 83 1.4 WNW 13 20 7 11 1018.6 1018.8 0.0
27/06:30pm 11.6 7.9 8.1 79 1.7 WNW 17 26 9 14 1018.4 - 0.0
27/06:00pm 11.6 8.4 8.3 80 1.6 W 15 20 8 11 1018.1 1018.2 0.0
27/05:30pm 12.2 9.7 8.1 76 2.0 W 11 17 6 9 1017.8 - 0.0
27/05:00pm 13.6 10.0 8.2 70 2.7 W 17 26 9 14 1017.3 1017.5 0.0
27/04:30pm 14.9 11.0 8.6 66 3.2 W 19 30 10 16 1017.2 - 0.0
27/04:00pm 15.1 10.7 8.8 66 3.3 W 22 35 12 19 1017.0 1017.2 0.0
27/03:30pm 15.2 10.4 8.9 66 3.3 W 24 39 13 21 1016.9 - 0.0
27/03:18pm 16.3 10.5 8.0 58 4.3 W 28 46 15 25 1016.7 - 0.0
27/03:00pm 16.7 10.9 8.1 57 4.4 WNW 28 43 15 23 1016.5 1016.7 0.0
27/02:30pm 16.7 11.5 8.7 59 4.2 WNW 26 39 14 21 1016.5 - 0.0
27/02:00pm 16.1 10.5 8.6 61 3.9 WNW 28 43 15 23 1016.6 1016.8 0.0
27/01:30pm 16.4 10.8 8.9 61 3.9 W 28 43 15 23 1016.7 - 0.0
27/01:00pm 15.7 10.0 8.4 62 3.8 WNW 28 50 15 27 1017.2 1017.4 0.0
27/12:54pm 16.3 10.7 8.8 61 3.9 WNW 28 50 15 27 1017.2 - 0.0
27/12:30pm 15.1 9.7 9.5 69 2.9 W 28 41 15 22 1017.6 - 0.0
27/12:07pm 14.2 8.2 8.8 70 2.8 W 30 48 16 26 1017.8 - 0.0
27/12:00pm 14.7 8.7 8.6 67 3.1 WNW 30 46 16 25 1017.9 1018.0 0.0
27/11:50am 14.7 9.2 9.1 69 2.9 WNW 28 46 15 25 1018.1 - 0.0
27/11:30am 13.9 8.3 8.9 72 2.6 WNW 28 43 15 23 1018.3 - 0.0
27/11:00am 13.7 8.7 9.4 75 2.2 WNW 26 41 14 22 1018.5 1018.7 0.0
27/10:30am 13.2 8.5 9.3 77 2.0 WNW 24 33 13 18 1018.7 - 0.0
27/10:00am 12.4 8.4 9.1 80 1.7 WNW 20 33 11 18 1019.0 1019.2 0.0
27/09:30am 12.1 8.2 9.5 84 1.3 WNW 20 33 11 18 1018.8 - 0.0
27/09:00am 10.9 6.1 8.7 86 1.1 WNW 24 35 13 19 1018.6 1018.8 4.0
27/08:30am 10.5 5.9 8.3 86 1.1 WNW 22 33 12 18 1018.4 - 4.0
27/08:00am 9.9 5.6 7.8 87 1.0 WNW 20 30 11 16 1018.0 1018.1 4.0
27/07:30am 9.6 5.2 7.2 85 1.2 WNW 20 32 11 17 1017.9 - 4.0
27/07:00am 9.1 3.8 6.7 85 1.1 WNW 24 39 13 21 1017.3 1017.5 4.0
27/06:30am 9.0 4.0 6.4 84 1.2 NW 22 39 12 21 1016.7 - 4.0
27/06:00am 9.0 3.7 6.6 85 1.1 NW 24 41 13 22 1016.4 1016.6 4.0
27/05:30am 8.5 3.5 6.3 86 1.0 WNW 22 41 12 22 1016.1 - 4.0
27/05:00am 8.4 3.0 6.4 87 0.9 NW 24 39 13 21 1015.8 1016.0 4.0
27/04:30am 8.4 2.6 6.4 87 0.9 NW 26 39 14 21 1015.6 - 4.0
27/04:00am 8.4 3.1 6.7 89 0.8 WNW 24 37 13 20 1015.7 1015.9 4.0
27/03:30am 8.7 3.4 6.8 88 0.9 WNW 24 43 13 23 1015.8 - 4.0
27/03:00am 8.6 3.7 6.9 89 0.8 NW 22 39 12 21 1015.9 1016.1 4.0
27/02:30am 8.4 3.8 6.7 89 0.8 NW 20 32 11 17 1016.0 - 3.8
27/02:00am 8.1 3.7 6.6 90 0.7 NW 19 28 10 15 1016.0 1016.2 3.8
27/01:30am 8.1 3.7 6.7 91 0.7 NW 19 30 10 16 1016.2 - 3.8
27/01:00am 7.9 3.9 6.7 92 0.6 NW 17 26 9 14 1016.3 1016.5 3.8
27/12:30am 8.1 3.8 7.0 93 0.5 NW 19 28 10 15 1016.6 - 3.8
27/12:00am 7.9 3.6 6.8 93 0.5 NW 19 26 10 14 1016.8 1017.0 3.8
 
Date/Time
WST
Temp
°C
App
Temp
°C
Dew
Point
Rel
Hum
%
Delta-T
°C
Wind Press
QNH
hPa
Press
MSL
hPa
Rain
since 9 am
mm
Dir
 
Spd
km/h
Gust
km/h
Spd
kts
Gust
kts
26/11:30pm 7.9 3.6 6.8 93 0.5 WNW 19 26 10 14 1016.9 - 3.8
26/11:00pm 8.3 4.0 7.1 92 0.6 NW 19 26 10 14 1016.8 1017.0 3.8
26/10:30pm 8.5 4.7 7.4 93 0.5 NW 17 24 9 13 1016.8 - 3.8
26/10:00pm 8.5 5.5 7.7 95 0.4 NNW 13 24 7 13 1016.9 1017.1 3.8
26/09:30pm 8.3 5.6 7.4 94 0.4 NW 11 17 6 9 1017.0 - 3.8
26/09:00pm 8.4 5.7 7.5 94 0.4 NW 11 19 6 10 1017.0 1017.2 3.8
26/08:30pm 8.1 5.4 7.3 95 0.4 NW 11 17 6 9 1016.7 - 3.6
26/08:00pm 7.7 5.3 6.8 94 0.4 NNW 9 13 5 7 1016.5 1016.7 3.6
26/07:30pm 8.4 6.1 7.5 94 0.4 NW 9 15 5 8 1016.4 - 3.6
26/07:00pm 8.6 6.4 7.7 94 0.4 NW 9 13 5 7 1016.3 1016.5 3.6
26/06:30pm 8.9 6.4 8.0 94 0.4 WNW 11 15 6 8 1015.8 - 3.6
26/06:00pm 9.6 7.1 8.4 92 0.6 W 11 13 6 7 1015.4 1015.5 3.6
26/05:30pm 10.5 7.4 8.9 90 0.8 W 15 19 8 10 1014.9 - 3.6
26/05:00pm 11.5 7.8 9.4 87 1.1 W 19 26 10 14 1014.5 1014.6 3.6
26/04:30pm 11.8 8.0 9.9 88 1.0 W 20 30 11 16 1013.9 - 3.6
26/04:00pm 11.8 8.7 10.2 90 0.8 W 17 30 9 16 1013.5 1013.7 3.6
26/03:30pm 12.4 9.1 11.5 94 0.5 W 20 30 11 16 1012.7 - 3.6
26/03:00pm 12.2 8.0 11.1 93 0.6 W 24 39 13 21 1012.8 1012.9 2.8
26/02:30pm 12.8 8.3 11.5 92 0.7 W 26 43 14 23 1012.5 - 2.2
26/02:00pm 12.9 7.6 11.3 90 0.9 W 30 44 16 24 1012.4 1012.5 2.0
26/01:30pm 13.3 7.2 11.7 90 0.9 W 35 54 19 29 1011.8 - 1.8
26/01:02pm 15.9 10.4 11.9 77 2.2 NW 32 50 17 27 1010.9 - 0.0
26/01:00pm 15.8 10.1 11.8 77 2.2 NW 33 50 18 27 1010.8 1010.9 0.0
26/12:30pm 15.5 9.6 11.1 75 2.4 NW 33 54 18 29 1011.2 - 0.0
26/12:00pm 16.6 9.5 10.9 69 3.1 NW 39 61 21 33 1011.5 1011.6 0.0
26/11:30am 17.2 10.2 11.2 68 3.3 NW 39 61 21 33 1011.5 - 0.0
26/11:00am 16.5 9.0 10.8 69 3.1 NW 41 69 22 37 1011.7 1011.8 0.0
26/10:30am 15.8 8.6 10.6 71 2.8 NW 39 61 21 33 1011.9 - 0.0
26/10:00am 16.1 9.7 10.8 71 2.9 NW 35 59 19 32 1011.9 1012.0 0.0
26/09:30am 15.5 9.6 10.3 71 2.8 NW 32 54 17 29 1012.1 - 0.0
26/09:06am 14.7 8.4 9.7 72 2.6 NW 33 54 18 29 1012.4 - 0.0
26/09:00am 14.3 7.9 9.3 72 2.6 NNW 33 50 18 27 1012.3 1012.4 0.0

Other Formats:

Comma delimited format used in spreadsheet applications
http://www.bom.gov.au/fwo/IDW60801/IDW60801.95636.axf

JavaScript Object Notation format (JSON) in row-major order
http://www.bom.gov.au/fwo/IDW60801/IDW60801.95636.json